sensor_id;sensor_type;location;lat;lon;timestamp;temperature;humidity
56869;DHT22;42754;0.000;0.000;2023-05-02T00:01:55;11.50;99.90
56869;DHT22;42754;0.000;0.000;2023-05-02T00:04:21;11.50;99.90
56869;DHT22;42754;0.000;0.000;2023-05-02T00:06:47;11.50;99.90
56869;DHT22;42754;0.000;0.000;2023-05-02T00:09:12;11.50;99.90
56869;DHT22;42754;0.000;0.000;2023-05-02T00:11:38;11.60;99.90
56869;DHT22;42754;0.000;0.000;2023-05-02T00:14:04;11.60;99.90
56869;DHT22;42754;0.000;0.000;2023-05-02T00:16:29;11.60;99.90
56869;DHT22;42754;0.000;0.000;2023-05-02T00:18:55;11.60;99.90
56869;DHT22;42754;0.000;0.000;2023-05-02T00:21:21;11.50;99.90
56869;DHT22;42754;0.000;0.000;2023-05-02T00:23:46;11.60;99.90
56869;DHT22;42754;0.000;0.000;2023-05-02T00:26:12;11.60;99.90
56869;DHT22;42754;0.000;0.000;2023-05-02T00:28:37;11.60;99.90
56869;DHT22;42754;0.000;0.000;2023-05-02T00:31:04;11.60;99.90
56869;DHT22;42754;0.000;0.000;2023-05-02T00:33:30;11.60;99.90
56869;DHT22;42754;0.000;0.000;2023-05-02T00:35:56;11.70;99.90
56869;DHT22;42754;0.000;0.000;2023-05-02T00:38:22;11.70;99.90
56869;DHT22;42754;0.000;0.000;2023-05-02T00:40:48;11.60;99.90
56869;DHT22;42754;0.000;0.000;2023-05-02T00:43:15;11.60;99.90
56869;DHT22;42754;0.000;0.000;2023-05-02T00:45:42;11.60;99.90
56869;DHT22;42754;0.000;0.000;2023-05-02T00:48:08;11.70;99.90
56869;DHT22;42754;0.000;0.000;2023-05-02T00:50:41;11.60;99.90
56869;DHT22;42754;0.000;0.000;2023-05-02T00:53:07;11.60;99.90
56869;DHT22;42754;0.000;0.000;2023-05-02T00:55:33;11.60;99.90
56869;DHT22;42754;0.000;0.000;2023-05-02T00:58:00;11.50;99.90
56869;DHT22;42754;0.000;0.000;2023-05-02T01:00:29;11.50;99.90
56869;DHT22;42754;0.000;0.000;2023-05-02T01:02:58;11.50;99.90
56869;DHT22;42754;0.000;0.000;2023-05-02T01:05:33;11.50;99.90
56869;DHT22;42754;0.000;0.000;2023-05-02T01:08:12;11.60;99.90
56869;DHT22;42754;0.000;0.000;2023-05-02T01:10:47;11.60;99.90
56869;DHT22;42754;0.000;0.000;2023-05-02T01:15:43;11.60;99.90
56869;DHT22;42754;0.000;0.000;2023-05-02T01:18:09;11.60;99.90
56869;DHT22;42754;0.000;0.000;2023-05-02T01:20:37;11.60;99.90
56869;DHT22;42754;0.000;0.000;2023-05-02T01:23:12;11.60;99.90
56869;DHT22;42754;0.000;0.000;2023-05-02T01:30:39;11.60;99.90
56869;DHT22;42754;0.000;0.000;2023-05-02T01:33:06;11.60;99.90
56869;DHT22;42754;0.000;0.000;2023-05-02T01:35:33;11.50;99.90
56869;DHT22;42754;0.000;0.000;2023-05-02T01:38:00;11.50;99.90
56869;DHT22;42754;0.000;0.000;2023-05-02T01:40:26;11.50;99.90
56869;DHT22;42754;0.000;0.000;2023-05-02T01:42:54;11.50;99.90
56869;DHT22;42754;0.000;0.000;2023-05-02T01:45:21;11.50;99.90
56869;DHT22;42754;0.000;0.000;2023-05-02T01:47:48;11.50;99.90
56869;DHT22;42754;0.000;0.000;2023-05-02T01:50:15;11.50;99.90
56869;DHT22;42754;0.000;0.000;2023-05-02T01:52:41;11.40;99.90
56869;DHT22;42754;0.000;0.000;2023-05-02T01:55:13;11.50;99.90
56869;DHT22;42754;0.000;0.000;2023-05-02T01:57:40;11.50;99.90
56869;DHT22;42754;0.000;0.000;2023-05-02T02:00:06;11.50;99.90
56869;DHT22;42754;0.000;0.000;2023-05-02T02:02:33;11.50;99.90
56869;DHT22;42754;0.000;0.000;2023-05-02T02:04:59;11.50;99.90
56869;DHT22;42754;0.000;0.000;2023-05-02T02:07:25;11.40;99.90
56869;DHT22;42754;0.000;0.000;2023-05-02T02:09:51;11.40;99.90
56869;DHT22;42754;0.000;0.000;2023-05-02T02:14:47;11.40;99.90
56869;DHT22;42754;0.000;0.000;2023-05-02T02:17:15;11.40;99.90
56869;DHT22;42754;0.000;0.000;2023-05-02T02:19:45;11.30;99.90
56869;DHT22;42754;0.000;0.000;2023-05-02T02:22:10;11.40;99.90
56869;DHT22;42754;0.000;0.000;2023-05-02T02:24:37;11.30;99.90
56869;DHT22;42754;0.000;0.000;2023-05-02T02:27:03;11.20;99.90
56869;DHT22;42754;0.000;0.000;2023-05-02T02:29:29;11.20;99.90
56869;DHT22;42754;0.000;0.000;2023-05-02T02:31:55;11.10;99.90
56869;DHT22;42754;0.000;0.000;2023-05-02T02:34:20;11.10;99.90
56869;DHT22;42754;0.000;0.000;2023-05-02T02:36:54;11.10;99.90
56869;DHT22;42754;0.000;0.000;2023-05-02T02:39:34;11.00;99.90
56869;DHT22;42754;0.000;0.000;2023-05-02T02:42:11;10.90;99.90
56869;DHT22;42754;0.000;0.000;2023-05-02T02:47:43;11.00;99.90
56869;DHT22;42754;0.000;0.000;2023-05-02T02:50:08;11.00;99.90
56869;DHT22;42754;0.000;0.000;2023-05-02T02:58:20;10.90;99.90
56869;DHT22;42754;0.000;0.000;2023-05-02T03:00:46;10.90;99.90
56869;DHT22;42754;0.000;0.000;2023-05-02T03:03:12;10.90;99.90
56869;DHT22;42754;0.000;0.000;2023-05-02T03:05:39;10.90;99.90
56869;DHT22;42754;0.000;0.000;2023-05-02T03:08:05;10.90;99.90
56869;DHT22;42754;0.000;0.000;2023-05-02T03:10:31;10.90;99.90
56869;DHT22;42754;0.000;0.000;2023-05-02T03:12:57;10.80;99.90
56869;DHT22;42754;0.000;0.000;2023-05-02T03:15:31;10.90;99.90
56869;DHT22;42754;0.000;0.000;2023-05-02T03:18:05;10.90;99.90
56869;DHT22;42754;0.000;0.000;2023-05-02T03:20:31;10.90;99.90
56869;DHT22;42754;0.000;0.000;2023-05-02T03:22:56;10.80;99.90
56869;DHT22;42754;0.000;0.000;2023-05-02T03:25:22;10.80;99.90
56869;DHT22;42754;0.000;0.000;2023-05-02T03:27:48;10.80;99.90
56869;DHT22;42754;0.000;0.000;2023-05-02T03:30:13;10.80;99.90
56869;DHT22;42754;0.000;0.000;2023-05-02T03:32:39;10.80;99.90
56869;DHT22;42754;0.000;0.000;2023-05-02T03:35:05;10.80;99.90
56869;DHT22;42754;0.000;0.000;2023-05-02T03:37:31;10.80;99.90
56869;DHT22;42754;0.000;0.000;2023-05-02T03:39:58;10.70;99.90
56869;DHT22;42754;0.000;0.000;2023-05-02T03:42:23;10.70;99.90
56869;DHT22;42754;0.000;0.000;2023-05-02T03:44:50;10.70;99.90
56869;DHT22;42754;0.000;0.000;2023-05-02T03:47:16;10.70;99.90
56869;DHT22;42754;0.000;0.000;2023-05-02T03:49:41;10.70;99.90
56869;DHT22;42754;0.000;0.000;2023-05-02T03:52:07;10.60;99.90
56869;DHT22;42754;0.000;0.000;2023-05-02T03:54:32;10.60;99.90
56869;DHT22;42754;0.000;0.000;2023-05-02T03:56:58;10.60;99.90
56869;DHT22;42754;0.000;0.000;2023-05-02T03:59:23;10.60;99.90
56869;DHT22;42754;0.000;0.000;2023-05-02T04:01:49;10.60;99.90
56869;DHT22;42754;0.000;0.000;2023-05-02T04:04:15;10.60;99.90
56869;DHT22;42754;0.000;0.000;2023-05-02T04:06:41;10.60;99.90
56869;DHT22;42754;0.000;0.000;2023-05-02T04:09:07;10.70;99.90
56869;DHT22;42754;0.000;0.000;2023-05-02T04:11:32;10.60;99.90
56869;DHT22;42754;0.000;0.000;2023-05-02T04:13:58;10.60;99.90
56869;DHT22;42754;0.000;0.000;2023-05-02T04:16:24;10.60;99.90
56869;DHT22;42754;0.000;0.000;2023-05-02T04:18:49;10.60;99.90
56869;DHT22;42754;0.000;0.000;2023-05-02T04:21:15;10.60;99.90
56869;DHT22;42754;0.000;0.000;2023-05-02T04:23:40;10.60;99.90
56869;DHT22;42754;0.000;0.000;2023-05-02T04:26:06;10.60;99.90
56869;DHT22;42754;0.000;0.000;2023-05-02T04:28:31;10.60;99.90
56869;DHT22;42754;0.000;0.000;2023-05-02T04:30:57;10.60;99.90
56869;DHT22;42754;0.000;0.000;2023-05-02T04:33:22;10.50;99.90
56869;DHT22;42754;0.000;0.000;2023-05-02T04:35:48;10.40;99.90
56869;DHT22;42754;0.000;0.000;2023-05-02T04:38:14;10.40;99.90
56869;DHT22;42754;0.000;0.000;2023-05-02T04:40:40;10.40;99.90
56869;DHT22;42754;0.000;0.000;2023-05-02T04:43:05;10.40;99.90
56869;DHT22;42754;0.000;0.000;2023-05-02T04:45:33;10.40;99.90
56869;DHT22;42754;0.000;0.000;2023-05-02T04:47:58;10.30;99.90
56869;DHT22;42754;0.000;0.000;2023-05-02T04:50:24;10.30;99.90
56869;DHT22;42754;0.000;0.000;2023-05-02T04:52:52;10.30;99.90
56869;DHT22;42754;0.000;0.000;2023-05-02T04:55:17;10.30;99.90
56869;DHT22;42754;0.000;0.000;2023-05-02T04:57:43;10.30;99.90
56869;DHT22;42754;0.000;0.000;2023-05-02T05:00:09;10.30;99.90
56869;DHT22;42754;0.000;0.000;2023-05-02T05:02:34;10.30;99.90
56869;DHT22;42754;0.000;0.000;2023-05-02T05:05:00;10.20;99.90
56869;DHT22;42754;0.000;0.000;2023-05-02T05:07:26;10.30;99.90
56869;DHT22;42754;0.000;0.000;2023-05-02T05:09:52;10.40;99.90
56869;DHT22;42754;0.000;0.000;2023-05-02T05:12:17;10.40;99.90
56869;DHT22;42754;0.000;0.000;2023-05-02T05:14:44;10.30;99.90
56869;DHT22;42754;0.000;0.000;2023-05-02T05:17:09;10.30;99.90
56869;DHT22;42754;0.000;0.000;2023-05-02T05:19:35;10.30;99.90
56869;DHT22;42754;0.000;0.000;2023-05-02T05:22:01;10.20;99.90
56869;DHT22;42754;0.000;0.000;2023-05-02T05:24:26;10.10;99.90
56869;DHT22;42754;0.000;0.000;2023-05-02T05:26:52;10.10;99.90
56869;DHT22;42754;0.000;0.000;2023-05-02T05:29:17;10.20;99.90
56869;DHT22;42754;0.000;0.000;2023-05-02T05:31:43;10.20;99.90
56869;DHT22;42754;0.000;0.000;2023-05-02T05:34:09;10.20;99.90
56869;DHT22;42754;0.000;0.000;2023-05-02T05:36:34;10.10;99.90
56869;DHT22;42754;0.000;0.000;2023-05-02T05:39:00;10.10;99.90
56869;DHT22;42754;0.000;0.000;2023-05-02T05:41:26;10.10;99.90
56869;DHT22;42754;0.000;0.000;2023-05-02T05:43:52;10.20;99.90
56869;DHT22;42754;0.000;0.000;2023-05-02T05:46:17;10.10;99.90
56869;DHT22;42754;0.000;0.000;2023-05-02T05:48:44;10.20;99.90
56869;DHT22;42754;0.000;0.000;2023-05-02T05:51:09;10.20;99.90
56869;DHT22;42754;0.000;0.000;2023-05-02T05:53:35;10.10;99.90
56869;DHT22;42754;0.000;0.000;2023-05-02T05:56:10;10.20;99.90
56869;DHT22;42754;0.000;0.000;2023-05-02T05:58:37;10.10;99.90
56869;DHT22;42754;0.000;0.000;2023-05-02T06:01:03;10.10;99.90
56869;DHT22;42754;0.000;0.000;2023-05-02T06:03:28;10.00;99.90
56869;DHT22;42754;0.000;0.000;2023-05-02T06:05:54;10.00;99.90
56869;DHT22;42754;0.000;0.000;2023-05-02T06:08:20;10.10;99.90
56869;DHT22;42754;0.000;0.000;2023-05-02T06:10:46;10.10;99.90
56869;DHT22;42754;0.000;0.000;2023-05-02T06:13:11;10.10;99.90
56869;DHT22;42754;0.000;0.000;2023-05-02T06:15:37;10.10;99.90
56869;DHT22;42754;0.000;0.000;2023-05-02T06:18:02;10.00;99.90
56869;DHT22;42754;0.000;0.000;2023-05-02T06:20:28;10.10;99.90
56869;DHT22;42754;0.000;0.000;2023-05-02T06:22:54;10.00;99.90
56869;DHT22;42754;0.000;0.000;2023-05-02T06:25:20;10.10;99.90
56869;DHT22;42754;0.000;0.000;2023-05-02T06:27:45;10.10;99.90
56869;DHT22;42754;0.000;0.000;2023-05-02T06:30:11;10.10;99.90
56869;DHT22;42754;0.000;0.000;2023-05-02T06:32:37;10.10;99.90
56869;DHT22;42754;0.000;0.000;2023-05-02T06:35:03;10.20;99.90
56869;DHT22;42754;0.000;0.000;2023-05-02T06:37:32;10.10;99.90
56869;DHT22;42754;0.000;0.000;2023-05-02T06:39:58;10.20;99.90
56869;DHT22;42754;0.000;0.000;2023-05-02T06:42:24;10.20;99.90
56869;DHT22;42754;0.000;0.000;2023-05-02T06:44:50;10.20;99.90
56869;DHT22;42754;0.000;0.000;2023-05-02T06:47:15;10.20;99.90
56869;DHT22;42754;0.000;0.000;2023-05-02T06:49:41;10.10;99.90
56869;DHT22;42754;0.000;0.000;2023-05-02T06:52:06;10.00;99.90
56869;DHT22;42754;0.000;0.000;2023-05-02T06:54:32;10.00;99.90
56869;DHT22;42754;0.000;0.000;2023-05-02T06:56:58;10.10;99.90
56869;DHT22;42754;0.000;0.000;2023-05-02T06:59:24;10.10;99.90
56869;DHT22;42754;0.000;0.000;2023-05-02T07:01:49;10.10;99.90
56869;DHT22;42754;0.000;0.000;2023-05-02T07:04:16;10.20;99.90
56869;DHT22;42754;0.000;0.000;2023-05-02T07:06:42;10.20;99.90
56869;DHT22;42754;0.000;0.000;2023-05-02T07:09:07;10.20;99.90
56869;DHT22;42754;0.000;0.000;2023-05-02T07:11:33;10.40;99.90
56869;DHT22;42754;0.000;0.000;2023-05-02T07:13:58;10.50;99.90
56869;DHT22;42754;0.000;0.000;2023-05-02T07:16:24;10.70;99.90
56869;DHT22;42754;0.000;0.000;2023-05-02T07:18:49;10.60;99.90
56869;DHT22;42754;0.000;0.000;2023-05-02T07:21:15;10.60;99.90
56869;DHT22;42754;0.000;0.000;2023-05-02T07:23:43;10.70;99.90
56869;DHT22;42754;0.000;0.000;2023-05-02T07:26:09;10.70;99.90
56869;DHT22;42754;0.000;0.000;2023-05-02T07:28:34;10.80;99.90
56869;DHT22;42754;0.000;0.000;2023-05-02T07:31:00;10.70;99.90
56869;DHT22;42754;0.000;0.000;2023-05-02T07:33:25;10.70;99.90
56869;DHT22;42754;0.000;0.000;2023-05-02T07:35:51;10.60;99.90
56869;DHT22;42754;0.000;0.000;2023-05-02T07:38:16;10.70;99.90
56869;DHT22;42754;0.000;0.000;2023-05-02T07:40:42;10.80;99.90
56869;DHT22;42754;0.000;0.000;2023-05-02T07:43:08;10.80;99.90
56869;DHT22;42754;0.000;0.000;2023-05-02T07:45:33;10.60;99.90
56869;DHT22;42754;0.000;0.000;2023-05-02T07:47:59;10.30;99.90
56869;DHT22;42754;0.000;0.000;2023-05-02T07:50:25;10.20;99.90
56869;DHT22;42754;0.000;0.000;2023-05-02T07:52:51;10.10;99.90
56869;DHT22;42754;0.000;0.000;2023-05-02T07:55:17;10.00;99.90
56869;DHT22;42754;0.000;0.000;2023-05-02T07:57:42;9.90;99.90
56869;DHT22;42754;0.000;0.000;2023-05-02T08:00:08;10.00;99.90
56869;DHT22;42754;0.000;0.000;2023-05-02T08:02:34;10.10;99.90
56869;DHT22;42754;0.000;0.000;2023-05-02T08:05:01;10.20;99.90
56869;DHT22;42754;0.000;0.000;2023-05-02T08:07:27;10.40;99.90
56869;DHT22;42754;0.000;0.000;2023-05-02T08:09:52;10.50;99.90
56869;DHT22;42754;0.000;0.000;2023-05-02T08:12:18;10.70;99.90
56869;DHT22;42754;0.000;0.000;2023-05-02T08:14:43;11.00;99.90
56869;DHT22;42754;0.000;0.000;2023-05-02T08:17:09;11.20;99.90
56869;DHT22;42754;0.000;0.000;2023-05-02T08:19:35;11.30;99.90
56869;DHT22;42754;0.000;0.000;2023-05-02T08:22:00;11.70;99.90
56869;DHT22;42754;0.000;0.000;2023-05-02T08:24:26;12.00;99.90
56869;DHT22;42754;0.000;0.000;2023-05-02T08:26:52;11.90;99.90
56869;DHT22;42754;0.000;0.000;2023-05-02T08:29:17;12.10;99.90
56869;DHT22;42754;0.000;0.000;2023-05-02T08:31:43;12.20;99.90
56869;DHT22;42754;0.000;0.000;2023-05-02T08:34:09;12.20;99.90
56869;DHT22;42754;0.000;0.000;2023-05-02T08:36:34;12.30;99.90
56869;DHT22;42754;0.000;0.000;2023-05-02T08:39:01;12.70;99.90
56869;DHT22;42754;0.000;0.000;2023-05-02T08:41:28;12.80;99.90
56869;DHT22;42754;0.000;0.000;2023-05-02T08:43:53;12.70;99.90
56869;DHT22;42754;0.000;0.000;2023-05-02T08:46:20;12.40;99.90
56869;DHT22;42754;0.000;0.000;2023-05-02T08:48:46;12.10;99.90
56869;DHT22;42754;0.000;0.000;2023-05-02T08:51:14;11.80;99.90
56869;DHT22;42754;0.000;0.000;2023-05-02T08:53:41;12.00;99.90
56869;DHT22;42754;0.000;0.000;2023-05-02T08:56:07;12.10;99.90
56869;DHT22;42754;0.000;0.000;2023-05-02T08:58:36;12.00;99.90
56869;DHT22;42754;0.000;0.000;2023-05-02T09:01:02;11.80;99.90
56869;DHT22;42754;0.000;0.000;2023-05-02T09:03:30;11.90;99.90
56869;DHT22;42754;0.000;0.000;2023-05-02T09:06:00;11.90;99.90
56869;DHT22;42754;0.000;0.000;2023-05-02T09:08:27;12.20;99.90
56869;DHT22;42754;0.000;0.000;2023-05-02T09:10:53;12.10;99.90
56869;DHT22;42754;0.000;0.000;2023-05-02T09:13:29;12.00;99.90
56869;DHT22;42754;0.000;0.000;2023-05-02T09:15:58;12.10;99.90
56869;DHT22;42754;0.000;0.000;2023-05-02T09:18:26;12.30;99.90
56869;DHT22;42754;0.000;0.000;2023-05-02T09:20:52;12.40;99.90
56869;DHT22;42754;0.000;0.000;2023-05-02T09:23:18;12.40;99.90
56869;DHT22;42754;0.000;0.000;2023-05-02T09:25:44;12.40;99.90
56869;DHT22;42754;0.000;0.000;2023-05-02T09:28:10;12.40;99.70
56869;DHT22;42754;0.000;0.000;2023-05-02T09:30:35;12.90;99.60
56869;DHT22;42754;0.000;0.000;2023-05-02T09:33:01;13.40;98.40
56869;DHT22;42754;0.000;0.000;2023-05-02T09:35:28;13.90;99.60
56869;DHT22;42754;0.000;0.000;2023-05-02T09:37:54;14.10;98.00
56869;DHT22;42754;0.000;0.000;2023-05-02T09:40:20;13.80;97.10
56869;DHT22;42754;0.000;0.000;2023-05-02T09:42:46;14.50;97.50
56869;DHT22;42754;0.000;0.000;2023-05-02T09:45:18;15.10;97.30
56869;DHT22;42754;0.000;0.000;2023-05-02T09:47:44;15.30;96.10
56869;DHT22;42754;0.000;0.000;2023-05-02T09:50:10;15.60;97.50
56869;DHT22;42754;0.000;0.000;2023-05-02T09:52:35;15.70;97.00
56869;DHT22;42754;0.000;0.000;2023-05-02T09:55:07;15.50;95.40
56869;DHT22;42754;0.000;0.000;2023-05-02T09:57:44;14.80;95.60
56869;DHT22;42754;0.000;0.000;2023-05-02T10:00:09;15.30;95.80
56869;DHT22;42754;0.000;0.000;2023-05-02T10:02:35;15.60;95.70
56869;DHT22;42754;0.000;0.000;2023-05-02T10:05:01;15.90;95.10
56869;DHT22;42754;0.000;0.000;2023-05-02T10:07:28;16.30;93.50
56869;DHT22;42754;0.000;0.000;2023-05-02T10:09:56;16.20;93.90
56869;DHT22;42754;0.000;0.000;2023-05-02T10:12:22;15.90;93.90
56869;DHT22;42754;0.000;0.000;2023-05-02T10:14:52;15.60;95.20
56869;DHT22;42754;0.000;0.000;2023-05-02T10:17:21;15.30;95.40
56869;DHT22;42754;0.000;0.000;2023-05-02T10:20:06;15.20;95.70
56869;DHT22;42754;0.000;0.000;2023-05-02T10:22:33;15.80;94.60
56869;DHT22;42754;0.000;0.000;2023-05-02T10:25:01;15.70;94.60
56869;DHT22;42754;0.000;0.000;2023-05-02T10:27:28;16.20;95.50
56869;DHT22;42754;0.000;0.000;2023-05-02T10:29:54;16.30;95.50
56869;DHT22;42754;0.000;0.000;2023-05-02T10:32:22;16.60;94.80
56869;DHT22;42754;0.000;0.000;2023-05-02T10:34:49;16.30;94.90
56869;DHT22;42754;0.000;0.000;2023-05-02T10:37:14;15.80;94.50
56869;DHT22;42754;0.000;0.000;2023-05-02T10:39:40;15.70;94.50
56869;DHT22;42754;0.000;0.000;2023-05-02T10:42:06;15.50;94.20
56869;DHT22;42754;0.000;0.000;2023-05-02T10:44:36;15.00;94.70
56869;DHT22;42754;0.000;0.000;2023-05-02T10:47:21;14.90;95.20
56869;DHT22;42754;0.000;0.000;2023-05-02T10:52:39;15.30;93.60
56869;DHT22;42754;0.000;0.000;2023-05-02T10:55:21;16.00;94.70
56869;DHT22;42754;0.000;0.000;2023-05-02T11:02:50;16.10;93.50
56869;DHT22;42754;0.000;0.000;2023-05-02T11:05:16;16.10;95.30
56869;DHT22;42754;0.000;0.000;2023-05-02T11:07:41;16.10;93.10
56869;DHT22;42754;0.000;0.000;2023-05-02T11:12:45;15.90;94.80
56869;DHT22;42754;0.000;0.000;2023-05-02T11:15:12;15.90;94.30
56869;DHT22;42754;0.000;0.000;2023-05-02T11:20:22;16.20;93.40
56869;DHT22;42754;0.000;0.000;2023-05-02T11:22:48;16.40;94.00
56869;DHT22;42754;0.000;0.000;2023-05-02T11:25:33;16.60;93.10
56869;DHT22;42754;0.000;0.000;2023-05-02T11:27:59;16.20;93.30
56869;DHT22;42754;0.000;0.000;2023-05-02T11:30:43;16.20;92.80
56869;DHT22;42754;0.000;0.000;2023-05-02T11:33:10;15.70;92.90
56869;DHT22;42754;0.000;0.000;2023-05-02T11:35:36;15.10;93.80
56869;DHT22;42754;0.000;0.000;2023-05-02T11:38:08;15.30;93.40
56869;DHT22;42754;0.000;0.000;2023-05-02T11:40:34;15.60;94.10
56869;DHT22;42754;0.000;0.000;2023-05-02T11:43:03;16.10;93.80
56869;DHT22;42754;0.000;0.000;2023-05-02T11:45:36;16.30;93.70
56869;DHT22;42754;0.000;0.000;2023-05-02T11:48:06;16.30;92.60
56869;DHT22;42754;0.000;0.000;2023-05-02T11:50:32;17.00;94.30
56869;DHT22;42754;0.000;0.000;2023-05-02T11:52:59;16.50;93.20
56869;DHT22;42754;0.000;0.000;2023-05-02T11:55:25;16.40;92.60
56869;DHT22;42754;0.000;0.000;2023-05-02T11:57:51;16.40;92.20
56869;DHT22;42754;0.000;0.000;2023-05-02T12:00:17;16.80;92.40
56869;DHT22;42754;0.000;0.000;2023-05-02T12:02:44;16.90;92.50
56869;DHT22;42754;0.000;0.000;2023-05-02T12:05:10;16.60;92.30
56869;DHT22;42754;0.000;0.000;2023-05-02T12:07:37;16.70;92.10
56869;DHT22;42754;0.000;0.000;2023-05-02T12:10:04;16.40;91.30
56869;DHT22;42754;0.000;0.000;2023-05-02T12:12:30;16.70;92.90
56869;DHT22;42754;0.000;0.000;2023-05-02T12:14:56;16.80;91.60
56869;DHT22;42754;0.000;0.000;2023-05-02T12:17:24;17.10;92.20
56869;DHT22;42754;0.000;0.000;2023-05-02T12:19:50;17.40;93.20
56869;DHT22;42754;0.000;0.000;2023-05-02T12:22:19;17.20;92.50
56869;DHT22;42754;0.000;0.000;2023-05-02T12:24:45;17.10;92.30
56869;DHT22;42754;0.000;0.000;2023-05-02T12:27:18;17.10;91.70
56869;DHT22;42754;0.000;0.000;2023-05-02T12:29:46;16.90;90.90
56869;DHT22;42754;0.000;0.000;2023-05-02T12:32:17;17.10;92.50
56869;DHT22;42754;0.000;0.000;2023-05-02T12:35:02;17.10;93.10
56869;DHT22;42754;0.000;0.000;2023-05-02T12:37:32;17.40;91.70
56869;DHT22;42754;0.000;0.000;2023-05-02T12:40:13;17.30;91.80
56869;DHT22;42754;0.000;0.000;2023-05-02T12:42:42;17.40;92.10
56869;DHT22;42754;0.000;0.000;2023-05-02T12:45:17;17.80;91.50
56869;DHT22;42754;0.000;0.000;2023-05-02T12:47:45;17.50;91.50
56869;DHT22;42754;0.000;0.000;2023-05-02T12:50:11;17.30;91.50
56869;DHT22;42754;0.000;0.000;2023-05-02T12:55:20;17.00;92.60
56869;DHT22;42754;0.000;0.000;2023-05-02T12:58:09;17.00;92.40
56869;DHT22;42754;0.000;0.000;2023-05-02T13:00:40;16.70;92.50
56869;DHT22;42754;0.000;0.000;2023-05-02T13:03:07;17.20;93.10
56869;DHT22;42754;0.000;0.000;2023-05-02T13:05:33;17.20;92.10
56869;DHT22;42754;0.000;0.000;2023-05-02T13:08:04;17.00;91.40
56869;DHT22;42754;0.000;0.000;2023-05-02T13:10:32;16.90;92.50
56869;DHT22;42754;0.000;0.000;2023-05-02T13:13:02;17.00;92.70
56869;DHT22;42754;0.000;0.000;2023-05-02T13:15:30;16.90;92.60
56869;DHT22;42754;0.000;0.000;2023-05-02T13:18:02;17.10;91.40
56869;DHT22;42754;0.000;0.000;2023-05-02T13:20:29;16.80;92.40
56869;DHT22;42754;0.000;0.000;2023-05-02T13:23:01;16.70;92.80
56869;DHT22;42754;0.000;0.000;2023-05-02T13:25:26;17.00;93.10
56869;DHT22;42754;0.000;0.000;2023-05-02T13:27:52;17.00;92.80
56869;DHT22;42754;0.000;0.000;2023-05-02T13:30:26;17.10;93.10
56869;DHT22;42754;0.000;0.000;2023-05-02T13:32:55;17.40;92.80
56869;DHT22;42754;0.000;0.000;2023-05-02T13:35:23;17.40;91.40
56869;DHT22;42754;0.000;0.000;2023-05-02T13:37:56;17.10;91.90
56869;DHT22;42754;0.000;0.000;2023-05-02T13:40:21;17.00;91.70
56869;DHT22;42754;0.000;0.000;2023-05-02T13:42:47;16.80;92.40
56869;DHT22;42754;0.000;0.000;2023-05-02T13:45:13;17.30;93.40
56869;DHT22;42754;0.000;0.000;2023-05-02T13:47:38;17.30;92.30
56869;DHT22;42754;0.000;0.000;2023-05-02T13:50:04;17.30;92.30
56869;DHT22;42754;0.000;0.000;2023-05-02T13:52:30;17.20;92.80
56869;DHT22;42754;0.000;0.000;2023-05-02T13:54:56;17.30;92.20
56869;DHT22;42754;0.000;0.000;2023-05-02T13:57:27;17.30;91.60
56869;DHT22;42754;0.000;0.000;2023-05-02T13:59:53;16.50;91.80
56869;DHT22;42754;0.000;0.000;2023-05-02T14:02:24;16.60;91.80
56869;DHT22;42754;0.000;0.000;2023-05-02T14:04:50;16.90;91.60
56869;DHT22;42754;0.000;0.000;2023-05-02T14:07:16;16.60;92.60
56869;DHT22;42754;0.000;0.000;2023-05-02T14:09:41;16.60;92.10
56869;DHT22;42754;0.000;0.000;2023-05-02T14:12:07;16.80;91.50
56869;DHT22;42754;0.000;0.000;2023-05-02T14:14:32;16.60;91.80
56869;DHT22;42754;0.000;0.000;2023-05-02T14:17:00;16.50;91.30
56869;DHT22;42754;0.000;0.000;2023-05-02T14:19:28;16.70;91.70
56869;DHT22;42754;0.000;0.000;2023-05-02T14:21:53;17.00;92.30
56869;DHT22;42754;0.000;0.000;2023-05-02T14:24:19;17.20;91.90
56869;DHT22;42754;0.000;0.000;2023-05-02T14:26:44;17.00;91.60
56869;DHT22;42754;0.000;0.000;2023-05-02T14:29:10;16.80;91.50
56869;DHT22;42754;0.000;0.000;2023-05-02T14:31:36;17.00;92.20
56869;DHT22;42754;0.000;0.000;2023-05-02T14:34:01;16.80;91.60
56869;DHT22;42754;0.000;0.000;2023-05-02T14:36:27;16.50;91.40
56869;DHT22;42754;0.000;0.000;2023-05-02T14:38:53;16.50;92.10
56869;DHT22;42754;0.000;0.000;2023-05-02T14:41:19;16.70;91.90
56869;DHT22;42754;0.000;0.000;2023-05-02T14:43:45;16.90;92.00
56869;DHT22;42754;0.000;0.000;2023-05-02T14:46:11;16.70;90.90
56869;DHT22;42754;0.000;0.000;2023-05-02T14:48:37;17.00;90.60
56869;DHT22;42754;0.000;0.000;2023-05-02T14:51:03;16.70;91.50
56869;DHT22;42754;0.000;0.000;2023-05-02T14:53:29;16.60;91.00
56869;DHT22;42754;0.000;0.000;2023-05-02T14:55:55;16.50;90.20
56869;DHT22;42754;0.000;0.000;2023-05-02T14:58:20;16.50;91.00
56869;DHT22;42754;0.000;0.000;2023-05-02T15:00:46;16.60;91.40
56869;DHT22;42754;0.000;0.000;2023-05-02T15:03:11;16.60;91.60
56869;DHT22;42754;0.000;0.000;2023-05-02T15:05:37;16.50;91.10
56869;DHT22;42754;0.000;0.000;2023-05-02T15:08:03;16.50;91.60
56869;DHT22;42754;0.000;0.000;2023-05-02T15:10:28;16.40;91.40
56869;DHT22;42754;0.000;0.000;2023-05-02T15:12:54;16.70;92.00
56869;DHT22;42754;0.000;0.000;2023-05-02T15:15:20;16.10;90.40
56869;DHT22;42754;0.000;0.000;2023-05-02T15:17:49;16.20;91.70
56869;DHT22;42754;0.000;0.000;2023-05-02T15:20:15;16.20;90.90
56869;DHT22;42754;0.000;0.000;2023-05-02T15:22:40;16.30;91.60
56869;DHT22;42754;0.000;0.000;2023-05-02T15:25:06;15.80;91.30
56869;DHT22;42754;0.000;0.000;2023-05-02T15:27:32;16.20;92.70
56869;DHT22;42754;0.000;0.000;2023-05-02T15:29:58;16.30;91.50
56869;DHT22;42754;0.000;0.000;2023-05-02T15:32:23;16.30;91.50
56869;DHT22;42754;0.000;0.000;2023-05-02T15:34:50;16.50;90.70
56869;DHT22;42754;0.000;0.000;2023-05-02T15:37:15;16.20;91.70
56869;DHT22;42754;0.000;0.000;2023-05-02T15:39:41;16.00;90.80
56869;DHT22;42754;0.000;0.000;2023-05-02T15:42:06;15.70;91.10
56869;DHT22;42754;0.000;0.000;2023-05-02T15:44:35;15.80;91.30
56869;DHT22;42754;0.000;0.000;2023-05-02T15:47:01;15.50;91.90
56869;DHT22;42754;0.000;0.000;2023-05-02T15:49:27;15.50;91.60
56869;DHT22;42754;0.000;0.000;2023-05-02T15:51:56;15.60;91.70
56869;DHT22;42754;0.000;0.000;2023-05-02T15:54:22;15.60;91.60
56869;DHT22;42754;0.000;0.000;2023-05-02T15:56:47;15.60;92.00
56869;DHT22;42754;0.000;0.000;2023-05-02T15:59:13;15.50;91.00
56869;DHT22;42754;0.000;0.000;2023-05-02T16:01:39;15.40;91.10
56869;DHT22;42754;0.000;0.000;2023-05-02T16:04:04;15.30;91.50
56869;DHT22;42754;0.000;0.000;2023-05-02T16:06:31;15.50;92.30
56869;DHT22;42754;0.000;0.000;2023-05-02T16:08:58;15.60;91.70
56869;DHT22;42754;0.000;0.000;2023-05-02T16:11:23;15.60;91.10
56869;DHT22;42754;0.000;0.000;2023-05-02T16:13:49;15.50;91.90
56869;DHT22;42754;0.000;0.000;2023-05-02T16:16:15;15.40;91.50
56869;DHT22;42754;0.000;0.000;2023-05-02T16:18:40;15.20;91.50